Dallas, Texas
Traffic Map
Current Weather Conditions
Dallas, Texas
Few Clouds
Few Clouds
78°
Feels Like: 79°
Wind Chill: 78° Ceiling: Unl
Heat Index: 79° Visibility: 10mi
Dew Point: 56° Wind: 6mph
Humidity: 46% Direction: 180° (S)
Pressure: 30.15in Gusts: 0mph
Raw Report DataKDAL 241753Z 18005KT 10SM FEW120 26/13 A3015 RMK AO2 SLP203 T02560133 10256 20167 58012
Traffic Incident Summary
Active as of:
Severity:
Category:
InformationThere was an issue retrieving the traffic information for this location. Please try a different location or try again shortly.
Advertisements
Track Severe Weather on mobile